Terminal Aerodrome Forecast
Issued by NWS Twin Cities, MN

Home | Current Version | Previous Version | Text Only | Print | Product List | Glossary Off
Versions: 1 2 3 4 5 6 7 8 9 10 11 12 13 14 15 16

000
FTUS43 KMPX 121739
TAFEAU
TAF
KEAU 121739Z 1218/1318 28005KT P6SM OVC070
     FM130100 VRB03KT P6SM VCSH BKN040
     FM130200 16004KT P6SM VCSH BKN030
     FM130400 15005KT P6SM BKN025
     FM130700 14006KT P6SM BKN060
     FM131000 13006KT P6SM VCSH OVC050
     FM131200 13005KT 4SM -SN OVC015
     FM131500 06005KT 3SM -FZDZSN OVC008=

USA.gov is the U.S. government's official web portal to all federal, state and local government web resources and services.